EDT,Max TemperatureF,Mean TemperatureF,Min TemperatureF,Max Dew PointF,MeanDew PointF,Min DewpointF,Max Humidity, Mean Humidity, Min Humidity, Max Sea Level PressureIn, Mean Sea Level PressureIn, Min Sea Level PressureIn, Max VisibilityMiles, Mean VisibilityMiles, Min VisibilityMiles, Max Wind SpeedMPH, Mean Wind SpeedMPH, Max Gust SpeedMPH,PrecipitationIn, CloudCover, Events, WindDirDegrees
2013-6-1,57,47,39,55,45,39,100,96,93,29.83,29.69,29.60,,,,16,8,22,0.05,,,312
2013-6-2,48,42,37,38,37,34,97,82,64,30.04,29.95,29.83,,,,22,17,26,0.04,,,1
2013-6-3,54,45,37,37,34,28,93,68,38,30.12,30.07,30.03,,,,18,8,23,0.00,,,334
2013-6-4,60,50,41,40,34,28,79,56,32,30.23,30.19,30.14,,,,7,3,,0.00,,,279
2013-6-5,57,49,44,44,36,30,82,58,45,30.20,30.17,30.12,,,,8,2,,0.00,,,177
2013-6-6,54,48,43,43,41,39,97,83,69,30.12,30.10,30.06,,,,6,2,,0.02,,,19
2013-6-7,55,49,43,43,41,38,89,75,57,30.06,30.01,29.95,,,,16,7,,0.00,,,316
2013-6-8,61,50,46,41,38,33,74,61,42,30.02,29.98,29.95,,,,9,4,,0.00,,,287
2013-6-9,70,60,50,48,40,34,68,46,30,30.07,30.03,29.95,,,,12,6,20,0.00,,,195
2013-6-10,70,57,46,52,47,41,89,70,54,29.92,29.85,29.80,,,,15,7,25,0.00,,,209
2013-6-11,63,54,44,58,48,43,97,90,80,29.88,29.84,29.81,,,,13,1,,0.00,,,4
2013-6-12,71,58,46,51,46,42,96,71,42,29.89,29.85,29.82,,,,13,3,,0.00,,,318
2013-6-13,59,52,46,47,44,42,93,78,60,30.14,30.05,29.88,,,,13,8,,0.00,,,356
2013-6-14,64,52,42,44,38,31,93,59,32,30.19,30.12,30.00,,,,12,4,21,0.00,,,175
2013-6-15,66,55,46,55,45,30,97,68,40,29.98,29.89,29.77,,,,13,7,24,0.00,,,240
2013-6-16,66,54,46,57,49,43,100,86,62,29.91,29.78,29.73,,,,16,4,26,0.28,,,338
2013-6-17,52,46,42,43,41,39,93,84,71,30.08,30.02,29.91,,,,7,1,,0.00,,,50
2013-6-18,66,52,39,45,40,36,97,68,34,30.18,30.14,30.08,,,,8,4,,0.00,,,254
2013-6-19,70,60,50,46,43,39,74,56,38,30.10,30.05,29.96,,,,14,3,25,0.00,,,213
2013-6-20,68,56,48,59,52,44,93,86,75,30.12,30.08,30.01,,,,9,2,,0.03,,,227
2013-6-21,62,54,44,60,53,43,100,94,83,30.12,30.01,29.94,,,,13,5,23,0.89,,,160
2013-6-22,62,54,45,59,52,44,100,97,90,30.12,30.05,29.99,,,,10,2,,0.02,,,144
2013-6-23,75,65,55,69,61,54,100,88,69,29.97,29.82,29.70,,,,13,8,26,0.23,,,233
2013-6-24,77,60,46,64,56,46,100,76,54,29.88,29.82,29.78,,,,10,4,18,0.00,,,293
2013-6-25,69,59,50,61,53,46,97,84,65,29.81,29.78,29.75,,,,13,6,18,0.00,,,275
2013-6-26,81,66,52,67,57,46,100,81,60,29.83,29.73,29.66,,,,37,7,47,0.74,,,234
2013-6-27,64,54,46,60,52,46,100,95,81,29.74,29.71,29.67,,,,8,2,,0.16,,,29
2013-6-28,55,50,45,53,49,45,100,96,89,29.77,29.71,29.65,,,,8,1,,0.00,,,15
2013-6-29,61,55,50,54,46,42,97,73,53,29.93,29.85,29.76,,,,13,4,,0.01,,,358
2013-6-30,64,56,48,50,48,44,89,75,48,30.08,30.02,29.94,,,,14,4,,0.00,,,339